LIML Airport Information

Runway Information
Runway 17 Length 1972 ft width 72 ft Elevation 353 ft Threshold N/A Heading 176
Runway 35 Length 1972 ft Width 72 ft Elevation 349 ft Threshold N/A Heading 356
Runway 18 Length 8005 ft width 197 ft Elevation 353 ft Threshold N/A Heading 176
Runway 36 Length 8005 ft Width 197 ft Elevation 337 ft Threshold N/A Heading 356
Airport Frequencies
Type APP Name MILANO APP Frequency 132.7 MHZ
Type ATIS Name ATIS Frequency 135.55 MHZ
Type DEP Name MILANO DEP Frequency 126.75 MHZ
Type GND Name GND Frequency 121.8 MHZ
Type TWR Name TWR Frequency 118.1 MHZ
Airport Navaids
Type VOR-DME Name Linate Frequency 112250 KHZ
Type NDB Name Linate Frequency 386 KHZ
Airport Weather Information & NOTAM
ADDS - METARS form results

(0308 UTC 12 August 2022)
Data provider http://aviationweather.gov/metar/data/
 
METAR text: LIML 120250Z 07007KT 9999 SCT080 23/12 Q1015 NOSIG
Conditions at: LIML (MILANO/LINATE , IT) observed 0250 UTC 12 August 2022
Temperature: 23.0°C (73°F)
Dewpoint: 12.0°C (54°F) [RH = 50%]
Pressure (altimeter): 29.97 inches Hg (1015.0 mb)
Winds: from the ENE (70 degrees) at 8 MPH (7 knots; 3.6 m/s)
Visibility: 6 or more miles (10+ km)
Ceiling: at least 12,000 feet AGL
Clouds: scattered clouds at 8000 feet AGL
Weather: no significant weather observed at this time

METAR text: LIML 120220Z 06005KT 030V090 9999 BKN080 23/12 Q1015 NOSIG
Conditions at: LIML (MILANO/LINATE , IT) observed 0220 UTC 12 August 2022
Temperature: 23.0°C (73°F)
Dewpoint: 12.0°C (54°F) [RH = 50%]
Pressure (altimeter): 29.97 inches Hg (1015.0 mb)
Winds: from the ENE (60 degrees) at 6 MPH (5 knots; 2.6 m/s)
Visibility: 6 or more miles (10+ km)
Ceiling: 8000 feet AGL
Clouds: broken clouds at 8000 feet AGL
Weather: no significant weather observed at this time

Forecast for: LIML (MILANO/LINATE , IT)
Text: TAF LIML 112300Z 1200/1224 VRB05KT 9999 SCT070
Forecast period: 0000 to 0700 UTC 12 August 2022
Forecast type: FROM: standard forecast or significant change
Winds: variable direction winds at 6 MPH (5 knots; 2.6 m/s)
Visibility: 6 or more miles (10+ km)
Ceiling: at least 12,000 feet AGL
Clouds: scattered clouds at 7000 feet AGL
Weather: no significant weather forecast for this period
Text: BECMG 1207/1209 12010KT
Forecast period: 0700 UTC 12 August 2022 to 0000 UTC 13 August 2022
Forecast type: BECOMING: Conditions expected to become as follows by 0900 UTC 12 August 2022
Winds: from the ESE (120 degrees) at 12 MPH (10 knots; 5.1 m/s)
Visibility: 6 or more miles (10+ km)
Ceiling: at least 12,000 feet AGL
Clouds: scattered clouds at 7000 feet AGL
Weather: no significant weather forecast for this period
Text: TEMPO 1217/1224 4000 TSRA
Forecast period: 1700 UTC 12 August 2022 to 0000 UTC 13 August 2022
Forecast type: TEMPORARY: The following changes expected for less than half the time period
Visibility: 2.49 miles (4.01 km)
Ceiling: unknown
Clouds: missing
Weather: TSRA  (rain associated with thunderstorm(s))